sensor_id;sensor_type;location;lat;lon;timestamp;P1;durP1;ratioP1;P2;durP2;ratioP2
14410;SDS011;7290;50.854;4.354;2022-08-18T00:00:15;0.20;;;0.20;;
14410;SDS011;7290;50.854;4.354;2022-08-18T00:05:22;0.45;;;0.45;;
14410;SDS011;7290;50.854;4.354;2022-08-18T00:10:25;0.93;;;0.93;;
14410;SDS011;7290;50.854;4.354;2022-08-18T00:15:28;1.00;;;1.00;;
14410;SDS011;7290;50.854;4.354;2022-08-18T00:20:32;0.30;;;0.30;;
14410;SDS011;7290;50.854;4.354;2022-08-18T00:25:35;0.55;;;0.45;;
14410;SDS011;7290;50.854;4.354;2022-08-18T00:30:38;0.15;;;0.15;;
14410;SDS011;7290;50.854;4.354;2022-08-18T00:35:42;1.35;;;0.77;;
14410;SDS011;7290;50.854;4.354;2022-08-18T00:40:46;0.95;;;0.93;;
14410;SDS011;7290;50.854;4.354;2022-08-18T00:45:52;1.63;;;0.80;;
14410;SDS011;7290;50.854;4.354;2022-08-18T00:50:56;1.35;;;0.47;;
14410;SDS011;7290;50.854;4.354;2022-08-18T00:56:02;0.67;;;0.67;;
14410;SDS011;7290;50.854;4.354;2022-08-18T01:01:07;0.28;;;0.28;;
14410;SDS011;7290;50.854;4.354;2022-08-18T01:06:14;0.60;;;0.32;;
14410;SDS011;7290;50.854;4.354;2022-08-18T01:11:18;0.82;;;0.75;;
14410;SDS011;7290;50.854;4.354;2022-08-18T01:16:21;0.93;;;0.93;;
14410;SDS011;7290;50.854;4.354;2022-08-18T01:22:02;2.57;;;1.37;;
14410;SDS011;7290;50.854;4.354;2022-08-18T01:27:08;2.17;;;1.33;;
14410;SDS011;7290;50.854;4.354;2022-08-18T01:32:13;1.38;;;1.25;;
14410;SDS011;7290;50.854;4.354;2022-08-18T01:37:20;3.97;;;1.38;;
14410;SDS011;7290;50.854;4.354;2022-08-18T01:42:25;1.08;;;1.08;;
14410;SDS011;7290;50.854;4.354;2022-08-18T01:47:28;0.95;;;0.90;;
14410;SDS011;7290;50.854;4.354;2022-08-18T01:52:48;0.55;;;0.50;;
14410;SDS011;7290;50.854;4.354;2022-08-18T01:57:55;0.50;;;0.50;;
14410;SDS011;7290;50.854;4.354;2022-08-18T02:02:58;0.40;;;0.25;;
14410;SDS011;7290;50.854;4.354;2022-08-18T02:08:03;1.05;;;1.05;;
14410;SDS011;7290;50.854;4.354;2022-08-18T02:13:08;0.60;;;0.60;;
14410;SDS011;7290;50.854;4.354;2022-08-18T02:18:12;0.43;;;0.43;;
14410;SDS011;7290;50.854;4.354;2022-08-18T02:23:35;0.73;;;0.73;;
14410;SDS011;7290;50.854;4.354;2022-08-18T02:28:40;2.13;;;1.13;;
14410;SDS011;7290;50.854;4.354;2022-08-18T02:33:46;1.00;;;1.00;;
14410;SDS011;7290;50.854;4.354;2022-08-18T02:38:52;0.85;;;0.73;;
14410;SDS011;7290;50.854;4.354;2022-08-18T02:44:02;1.15;;;1.15;;
14410;SDS011;7290;50.854;4.354;2022-08-18T02:49:05;2.90;;;1.23;;
14410;SDS011;7290;50.854;4.354;2022-08-18T02:54:08;1.80;;;1.17;;
14410;SDS011;7290;50.854;4.354;2022-08-18T02:59:13;0.55;;;0.55;;
14410;SDS011;7290;50.854;4.354;2022-08-18T03:04:18;0.87;;;0.87;;
14410;SDS011;7290;50.854;4.354;2022-08-18T03:09:29;1.77;;;1.77;;
14410;SDS011;7290;50.854;4.354;2022-08-18T03:14:34;0.75;;;0.75;;
14410;SDS011;7290;50.854;4.354;2022-08-18T03:19:37;1.67;;;1.58;;
14410;SDS011;7290;50.854;4.354;2022-08-18T03:24:42;1.10;;;1.10;;
14410;SDS011;7290;50.854;4.354;2022-08-18T03:29:46;0.77;;;0.77;;
14410;SDS011;7290;50.854;4.354;2022-08-18T03:34:49;0.65;;;0.65;;
14410;SDS011;7290;50.854;4.354;2022-08-18T03:39:51;0.80;;;0.80;;
14410;SDS011;7290;50.854;4.354;2022-08-18T03:44:56;1.23;;;1.02;;
14410;SDS011;7290;50.854;4.354;2022-08-18T03:49:58;0.80;;;0.80;;
14410;SDS011;7290;50.854;4.354;2022-08-18T03:55:01;0.60;;;0.60;;
14410;SDS011;7290;50.854;4.354;2022-08-18T04:00:06;0.82;;;0.60;;
14410;SDS011;7290;50.854;4.354;2022-08-18T04:05:12;0.50;;;0.50;;
14410;SDS011;7290;50.854;4.354;2022-08-18T04:10:15;1.55;;;1.45;;
14410;SDS011;7290;50.854;4.354;2022-08-18T04:15:21;1.10;;;1.10;;
14410;SDS011;7290;50.854;4.354;2022-08-18T04:20:24;1.80;;;0.93;;
14410;SDS011;7290;50.854;4.354;2022-08-18T04:25:27;1.67;;;0.65;;
14410;SDS011;7290;50.854;4.354;2022-08-18T04:30:34;1.00;;;0.43;;
14410;SDS011;7290;50.854;4.354;2022-08-18T04:35:37;0.98;;;0.98;;
14410;SDS011;7290;50.854;4.354;2022-08-18T04:40:40;0.82;;;0.80;;
14410;SDS011;7290;50.854;4.354;2022-08-18T04:45:45;1.10;;;0.57;;
14410;SDS011;7290;50.854;4.354;2022-08-18T04:50:47;10.68;;;1.98;;
14410;SDS011;7290;50.854;4.354;2022-08-18T04:55:51;2.22;;;1.85;;
14410;SDS011;7290;50.854;4.354;2022-08-18T05:00:57;1.33;;;1.15;;
14410;SDS011;7290;50.854;4.354;2022-08-18T05:06:02;4.28;;;1.45;;
14410;SDS011;7290;50.854;4.354;2022-08-18T05:11:05;0.63;;;0.63;;
14410;SDS011;7290;50.854;4.354;2022-08-18T05:16:10;1.13;;;1.13;;
14410;SDS011;7290;50.854;4.354;2022-08-18T05:21:18;0.50;;;0.50;;
14410;SDS011;7290;50.854;4.354;2022-08-18T05:26:23;1.48;;;1.10;;
14410;SDS011;7290;50.854;4.354;2022-08-18T05:31:28;1.08;;;1.08;;
14410;SDS011;7290;50.854;4.354;2022-08-18T05:36:43;0.85;;;0.85;;
14410;SDS011;7290;50.854;4.354;2022-08-18T05:42:01;0.70;;;0.70;;
14410;SDS011;7290;50.854;4.354;2022-08-18T05:47:10;0.98;;;0.98;;
14410;SDS011;7290;50.854;4.354;2022-08-18T05:52:15;4.10;;;1.00;;
14410;SDS011;7290;50.854;4.354;2022-08-18T05:57:21;0.93;;;0.28;;
14410;SDS011;7290;50.854;4.354;2022-08-18T06:02:29;1.80;;;0.82;;
14410;SDS011;7290;50.854;4.354;2022-08-18T06:07:35;0.60;;;0.60;;
14410;SDS011;7290;50.854;4.354;2022-08-18T06:12:39;2.05;;;0.95;;
14410;SDS011;7290;50.854;4.354;2022-08-18T06:17:56;2.22;;;1.85;;
14410;SDS011;7290;50.854;4.354;2022-08-18T06:23:17;1.93;;;1.80;;
14410;SDS011;7290;50.854;4.354;2022-08-18T06:28:26;3.47;;;1.92;;
14410;SDS011;7290;50.854;4.354;2022-08-18T06:33:41;1.23;;;0.70;;
14410;SDS011;7290;50.854;4.354;2022-08-18T06:38:53;3.20;;;0.93;;
14410;SDS011;7290;50.854;4.354;2022-08-18T06:44:08;1.08;;;1.08;;
14410;SDS011;7290;50.854;4.354;2022-08-18T06:49:16;3.40;;;1.02;;
14410;SDS011;7290;50.854;4.354;2022-08-18T06:54:29;3.67;;;2.13;;
14410;SDS011;7290;50.854;4.354;2022-08-18T06:59:33;3.40;;;1.83;;
14410;SDS011;7290;50.854;4.354;2022-08-18T07:04:41;4.43;;;2.40;;
14410;SDS011;7290;50.854;4.354;2022-08-18T07:09:45;4.55;;;0.93;;
14410;SDS011;7290;50.854;4.354;2022-08-18T07:14:50;1.00;;;0.75;;
14410;SDS011;7290;50.854;4.354;2022-08-18T07:20:04;3.08;;;1.63;;
14410;SDS011;7290;50.854;4.354;2022-08-18T07:25:10;0.40;;;0.40;;
14410;SDS011;7290;50.854;4.354;2022-08-18T07:30:26;3.50;;;1.48;;
14410;SDS011;7290;50.854;4.354;2022-08-18T07:35:33;1.75;;;1.65;;
14410;SDS011;7290;50.854;4.354;2022-08-18T07:40:40;0.80;;;0.80;;
14410;SDS011;7290;50.854;4.354;2022-08-18T07:45:47;6.15;;;2.00;;
14410;SDS011;7290;50.854;4.354;2022-08-18T07:50:54;0.98;;;0.93;;
14410;SDS011;7290;50.854;4.354;2022-08-18T07:56:05;0.35;;;0.35;;
14410;SDS011;7290;50.854;4.354;2022-08-18T08:01:13;1.15;;;1.05;;
14410;SDS011;7290;50.854;4.354;2022-08-18T08:06:24;3.05;;;1.65;;
14410;SDS011;7290;50.854;4.354;2022-08-18T08:11:34;1.60;;;0.85;;
14410;SDS011;7290;50.854;4.354;2022-08-18T08:16:45;2.15;;;0.80;;
14410;SDS011;7290;50.854;4.354;2022-08-18T08:21:52;2.25;;;1.40;;
14410;SDS011;7290;50.854;4.354;2022-08-18T08:27:00;0.55;;;0.55;;
14410;SDS011;7290;50.854;4.354;2022-08-18T08:32:10;1.02;;;0.80;;
14410;SDS011;7290;50.854;4.354;2022-08-18T08:37:17;1.30;;;1.30;;
14410;SDS011;7290;50.854;4.354;2022-08-18T08:47:42;5.10;;;1.70;;
14410;SDS011;7290;50.854;4.354;2022-08-18T08:52:53;0.77;;;0.77;;
14410;SDS011;7290;50.854;4.354;2022-08-18T08:58:02;0.57;;;0.57;;
14410;SDS011;7290;50.854;4.354;2022-08-18T09:03:22;0.65;;;0.65;;
14410;SDS011;7290;50.854;4.354;2022-08-18T09:08:40;1.85;;;1.23;;
14410;SDS011;7290;50.854;4.354;2022-08-18T09:19:20;1.23;;;0.85;;
14410;SDS011;7290;50.854;4.354;2022-08-18T09:24:39;0.50;;;0.50;;
14410;SDS011;7290;50.854;4.354;2022-08-18T09:29:47;0.88;;;0.80;;
14410;SDS011;7290;50.854;4.354;2022-08-18T09:34:54;0.53;;;0.53;;
14410;SDS011;7290;50.854;4.354;2022-08-18T09:40:26;0.60;;;0.60;;
14410;SDS011;7290;50.854;4.354;2022-08-18T09:46:06;0.90;;;0.90;;
14410;SDS011;7290;50.854;4.354;2022-08-18T09:51:31;0.63;;;0.63;;
14410;SDS011;7290;50.854;4.354;2022-08-18T10:08:44;0.45;;;0.45;;
14410;SDS011;7290;50.854;4.354;2022-08-18T10:14:39;0.93;;;0.57;;
14410;SDS011;7290;50.854;4.354;2022-08-18T10:19:56;1.08;;;0.90;;
14410;SDS011;7290;50.854;4.354;2022-08-18T10:25:05;0.90;;;0.73;;
14410;SDS011;7290;50.854;4.354;2022-08-18T10:30:58;0.40;;;0.40;;
14410;SDS011;7290;50.854;4.354;2022-08-18T10:36:10;0.82;;;0.82;;
14410;SDS011;7290;50.854;4.354;2022-08-18T10:41:55;0.55;;;0.55;;
14410;SDS011;7290;50.854;4.354;2022-08-18T10:47:05;0.43;;;0.43;;
14410;SDS011;7290;50.854;4.354;2022-08-18T10:58:19;0.55;;;0.50;;
14410;SDS011;7290;50.854;4.354;2022-08-18T11:03:36;1.73;;;0.90;;
14410;SDS011;7290;50.854;4.354;2022-08-18T11:08:53;0.35;;;0.35;;
14410;SDS011;7290;50.854;4.354;2022-08-18T11:13:59;0.40;;;0.40;;
14410;SDS011;7290;50.854;4.354;2022-08-18T11:19:11;1.65;;;0.63;;
14410;SDS011;7290;50.854;4.354;2022-08-18T11:24:18;0.40;;;0.40;;
14410;SDS011;7290;50.854;4.354;2022-08-18T11:29:29;0.68;;;0.68;;
14410;SDS011;7290;50.854;4.354;2022-08-18T11:34:36;0.20;;;0.20;;
14410;SDS011;7290;50.854;4.354;2022-08-18T11:39:46;3.30;;;0.70;;
14410;SDS011;7290;50.854;4.354;2022-08-18T11:44:52;1.65;;;0.47;;
14410;SDS011;7290;50.854;4.354;2022-08-18T11:49:57;0.20;;;0.20;;
14410;SDS011;7290;50.854;4.354;2022-08-18T11:55:16;1.42;;;0.65;;
14410;SDS011;7290;50.854;4.354;2022-08-18T12:00:35;1.25;;;0.93;;
14410;SDS011;7290;50.854;4.354;2022-08-18T12:06:10;0.70;;;0.65;;
14410;SDS011;7290;50.854;4.354;2022-08-18T12:11:20;3.00;;;1.30;;
14410;SDS011;7290;50.854;4.354;2022-08-18T12:16:32;0.40;;;0.40;;
14410;SDS011;7290;50.854;4.354;2022-08-18T12:21:40;0.60;;;0.60;;
14410;SDS011;7290;50.854;4.354;2022-08-18T12:26:45;0.32;;;0.32;;
14410;SDS011;7290;50.854;4.354;2022-08-18T12:31:53;0.10;;;0.10;;
14410;SDS011;7290;50.854;4.354;2022-08-18T12:36:58;0.00;;;0.00;;
14410;SDS011;7290;50.854;4.354;2022-08-18T12:42:01;1.00;;;0.90;;
14410;SDS011;7290;50.854;4.354;2022-08-18T12:47:09;8.85;;;0.57;;
14410;SDS011;7290;50.854;4.354;2022-08-18T12:52:15;0.35;;;0.35;;
14410;SDS011;7290;50.854;4.354;2022-08-18T12:57:19;0.98;;;0.75;;
14410;SDS011;7290;50.854;4.354;2022-08-18T13:02:44;0.17;;;0.17;;
14410;SDS011;7290;50.854;4.354;2022-08-18T13:07:48;0.35;;;0.13;;
14410;SDS011;7290;50.854;4.354;2022-08-18T13:12:52;0.10;;;0.10;;
14410;SDS011;7290;50.854;4.354;2022-08-18T13:17:57;3.20;;;0.60;;
14410;SDS011;7290;50.854;4.354;2022-08-18T13:23:01;0.45;;;0.43;;
14410;SDS011;7290;50.854;4.354;2022-08-18T13:28:08;0.20;;;0.20;;
14410;SDS011;7290;50.854;4.354;2022-08-18T13:33:14;0.52;;;0.50;;
14410;SDS011;7290;50.854;4.354;2022-08-18T13:38:39;0.47;;;0.47;;
14410;SDS011;7290;50.854;4.354;2022-08-18T13:43:43;0.63;;;0.63;;
14410;SDS011;7290;50.854;4.354;2022-08-18T13:48:48;0.00;;;0.00;;
14410;SDS011;7290;50.854;4.354;2022-08-18T13:53:52;0.25;;;0.25;;
14410;SDS011;7290;50.854;4.354;2022-08-18T13:59:15;0.10;;;0.10;;
14410;SDS011;7290;50.854;4.354;2022-08-18T14:04:20;0.47;;;0.40;;
14410;SDS011;7290;50.854;4.354;2022-08-18T14:09:29;0.20;;;0.20;;
14410;SDS011;7290;50.854;4.354;2022-08-18T14:14:38;0.10;;;0.10;;
14410;SDS011;7290;50.854;4.354;2022-08-18T14:19:41;1.65;;;0.70;;
14410;SDS011;7290;50.854;4.354;2022-08-18T14:25:04;0.00;;;0.00;;
14410;SDS011;7290;50.854;4.354;2022-08-18T14:30:26;2.50;;;0.20;;
14410;SDS011;7290;50.854;4.354;2022-08-18T14:35:29;0.15;;;0.15;;
14410;SDS011;7290;50.854;4.354;2022-08-18T14:40:53;0.25;;;0.25;;
14410;SDS011;7290;50.854;4.354;2022-08-18T14:45:57;0.83;;;0.53;;
14410;SDS011;7290;50.854;4.354;2022-08-18T14:51:00;0.40;;;0.20;;
14410;SDS011;7290;50.854;4.354;2022-08-18T14:56:04;0.20;;;0.20;;
14410;SDS011;7290;50.854;4.354;2022-08-18T15:01:10;0.38;;;0.38;;
14410;SDS011;7290;50.854;4.354;2022-08-18T15:06:16;0.20;;;0.20;;
14410;SDS011;7290;50.854;4.354;2022-08-18T15:11:29;0.30;;;0.30;;
14410;SDS011;7290;50.854;4.354;2022-08-18T15:16:34;0.40;;;0.40;;
14410;SDS011;7290;50.854;4.354;2022-08-18T15:27:02;0.55;;;0.55;;
14410;SDS011;7290;50.854;4.354;2022-08-18T15:32:13;0.25;;;0.25;;
14410;SDS011;7290;50.854;4.354;2022-08-18T15:37:19;0.20;;;0.15;;
14410;SDS011;7290;50.854;4.354;2022-08-18T15:42:26;0.75;;;0.68;;
14410;SDS011;7290;50.854;4.354;2022-08-18T15:47:28;0.10;;;0.10;;
14410;SDS011;7290;50.854;4.354;2022-08-18T15:52:34;0.00;;;0.00;;
14410;SDS011;7290;50.854;4.354;2022-08-18T15:57:42;0.10;;;0.10;;
14410;SDS011;7290;50.854;4.354;2022-08-18T16:02:49;0.13;;;0.13;;
14410;SDS011;7290;50.854;4.354;2022-08-18T16:07:53;0.77;;;0.30;;
14410;SDS011;7290;50.854;4.354;2022-08-18T16:12:59;0.28;;;0.15;;
14410;SDS011;7290;50.854;4.354;2022-08-18T16:18:05;0.00;;;0.00;;
14410;SDS011;7290;50.854;4.354;2022-08-18T16:23:08;0.60;;;0.43;;
14410;SDS011;7290;50.854;4.354;2022-08-18T16:28:13;0.00;;;0.00;;
14410;SDS011;7290;50.854;4.354;2022-08-18T16:33:16;0.15;;;0.10;;
14410;SDS011;7290;50.854;4.354;2022-08-18T16:38:19;0.77;;;0.15;;
14410;SDS011;7290;50.854;4.354;2022-08-18T16:43:24;0.00;;;0.00;;
14410;SDS011;7290;50.854;4.354;2022-08-18T16:48:27;0.43;;;0.43;;
14410;SDS011;7290;50.854;4.354;2022-08-18T16:53:30;0.10;;;0.03;;
14410;SDS011;7290;50.854;4.354;2022-08-18T16:58:42;0.00;;;0.00;;
14410;SDS011;7290;50.854;4.354;2022-08-18T17:04:02;0.35;;;0.35;;
14410;SDS011;7290;50.854;4.354;2022-08-18T17:09:21;0.00;;;0.00;;
14410;SDS011;7290;50.854;4.354;2022-08-18T17:14:27;0.15;;;0.15;;
14410;SDS011;7290;50.854;4.354;2022-08-18T17:19:32;0.43;;;0.43;;
14410;SDS011;7290;50.854;4.354;2022-08-18T17:24:35;0.00;;;0.00;;
14410;SDS011;7290;50.854;4.354;2022-08-18T17:29:52;0.28;;;0.08;;
14410;SDS011;7290;50.854;4.354;2022-08-18T17:35:03;0.00;;;0.00;;
14410;SDS011;7290;50.854;4.354;2022-08-18T17:40:07;0.03;;;0.03;;
14410;SDS011;7290;50.854;4.354;2022-08-18T17:45:16;0.00;;;0.00;;
14410;SDS011;7290;50.854;4.354;2022-08-18T17:50:23;0.00;;;0.00;;
14410;SDS011;7290;50.854;4.354;2022-08-18T17:55:46;0.00;;;0.00;;
14410;SDS011;7290;50.854;4.354;2022-08-18T18:05:57;0.90;;;0.10;;
14410;SDS011;7290;50.854;4.354;2022-08-18T18:11:08;0.85;;;0.52;;
14410;SDS011;7290;50.854;4.354;2022-08-18T18:16:20;0.13;;;0.13;;
14410;SDS011;7290;50.854;4.354;2022-08-18T18:21:27;0.00;;;0.00;;
14410;SDS011;7290;50.854;4.354;2022-08-18T18:26:50;0.05;;;0.05;;
14410;SDS011;7290;50.854;4.354;2022-08-18T18:31:56;0.00;;;0.00;;
14410;SDS011;7290;50.854;4.354;2022-08-18T18:37:01;0.00;;;0.00;;
14410;SDS011;7290;50.854;4.354;2022-08-18T18:42:09;0.10;;;0.03;;
14410;SDS011;7290;50.854;4.354;2022-08-18T18:47:24;0.47;;;0.20;;
14410;SDS011;7290;50.854;4.354;2022-08-18T18:52:49;0.40;;;0.40;;
14410;SDS011;7290;50.854;4.354;2022-08-18T18:58:04;1.75;;;0.32;;
14410;SDS011;7290;50.854;4.354;2022-08-18T19:03:15;0.08;;;0.08;;
14410;SDS011;7290;50.854;4.354;2022-08-18T19:08:22;0.30;;;0.15;;
14410;SDS011;7290;50.854;4.354;2022-08-18T19:13:34;0.10;;;0.10;;
14410;SDS011;7290;50.854;4.354;2022-08-18T19:18:41;0.00;;;0.00;;
14410;SDS011;7290;50.854;4.354;2022-08-18T19:24:08;0.15;;;0.15;;
14410;SDS011;7290;50.854;4.354;2022-08-18T19:34:20;0.00;;;0.00;;
14410;SDS011;7290;50.854;4.354;2022-08-18T19:39:32;0.10;;;0.10;;
14410;SDS011;7290;50.854;4.354;2022-08-18T19:50:05;0.10;;;0.10;;
14410;SDS011;7290;50.854;4.354;2022-08-18T19:55:17;0.20;;;0.20;;
14410;SDS011;7290;50.854;4.354;2022-08-18T20:00:29;0.50;;;0.20;;
14410;SDS011;7290;50.854;4.354;2022-08-18T20:05:40;0.10;;;0.10;;
14410;SDS011;7290;50.854;4.354;2022-08-18T20:11:04;0.40;;;0.40;;
14410;SDS011;7290;50.854;4.354;2022-08-18T20:16:42;0.00;;;0.00;;
14410;SDS011;7290;50.854;4.354;2022-08-18T20:22:28;0.10;;;0.10;;
14410;SDS011;7290;50.854;4.354;2022-08-18T20:27:33;0.30;;;0.22;;
14410;SDS011;7290;50.854;4.354;2022-08-18T20:32:39;0.10;;;0.10;;
14410;SDS011;7290;50.854;4.354;2022-08-18T20:37:42;0.20;;;0.20;;
14410;SDS011;7290;50.854;4.354;2022-08-18T20:42:45;0.10;;;0.10;;
14410;SDS011;7290;50.854;4.354;2022-08-18T20:48:15;0.25;;;0.25;;
14410;SDS011;7290;50.854;4.354;2022-08-18T20:53:46;0.30;;;0.30;;
14410;SDS011;7290;50.854;4.354;2022-08-18T20:58:58;0.00;;;0.00;;
14410;SDS011;7290;50.854;4.354;2022-08-18T21:04:10;0.22;;;0.22;;
14410;SDS011;7290;50.854;4.354;2022-08-18T21:09:15;0.00;;;0.00;;
14410;SDS011;7290;50.854;4.354;2022-08-18T21:14:22;0.43;;;0.43;;
14410;SDS011;7290;50.854;4.354;2022-08-18T21:19:31;0.00;;;0.00;;
14410;SDS011;7290;50.854;4.354;2022-08-18T21:24:42;0.68;;;0.63;;
14410;SDS011;7290;50.854;4.354;2022-08-18T21:29:49;0.00;;;0.00;;
14410;SDS011;7290;50.854;4.354;2022-08-18T21:34:54;0.57;;;0.30;;
14410;SDS011;7290;50.854;4.354;2022-08-18T21:39:57;0.25;;;0.25;;
14410;SDS011;7290;50.854;4.354;2022-08-18T21:45:01;0.05;;;0.05;;
14410;SDS011;7290;50.854;4.354;2022-08-18T21:50:08;0.10;;;0.10;;
14410;SDS011;7290;50.854;4.354;2022-08-18T21:55:13;0.05;;;0.05;;
14410;SDS011;7290;50.854;4.354;2022-08-18T22:00:23;0.38;;;0.38;;
14410;SDS011;7290;50.854;4.354;2022-08-18T22:05:29;0.30;;;0.30;;
14410;SDS011;7290;50.854;4.354;2022-08-18T22:11:07;0.03;;;0.03;;
14410;SDS011;7290;50.854;4.354;2022-08-18T22:22:29;0.63;;;0.10;;
14410;SDS011;7290;50.854;4.354;2022-08-18T22:27:53;0.10;;;0.10;;
14410;SDS011;7290;50.854;4.354;2022-08-18T22:32:57;0.00;;;0.00;;
14410;SDS011;7290;50.854;4.354;2022-08-18T22:38:01;0.00;;;0.00;;
14410;SDS011;7290;50.854;4.354;2022-08-18T22:43:04;0.15;;;0.15;;
14410;SDS011;7290;50.854;4.354;2022-08-18T22:48:07;0.35;;;0.35;;
14410;SDS011;7290;50.854;4.354;2022-08-18T22:53:11;0.10;;;0.10;;
14410;SDS011;7290;50.854;4.354;2022-08-18T22:58:15;0.10;;;0.10;;
14410;SDS011;7290;50.854;4.354;2022-08-18T23:03:28;0.00;;;0.00;;
14410;SDS011;7290;50.854;4.354;2022-08-18T23:08:33;0.10;;;0.10;;
14410;SDS011;7290;50.854;4.354;2022-08-18T23:13:56;0.08;;;0.08;;
14410;SDS011;7290;50.854;4.354;2022-08-18T23:19:00;0.45;;;0.10;;
14410;SDS011;7290;50.854;4.354;2022-08-18T23:24:05;0.10;;;0.10;;
14410;SDS011;7290;50.854;4.354;2022-08-18T23:29:10;0.10;;;0.10;;
14410;SDS011;7290;50.854;4.354;2022-08-18T23:34:15;0.30;;;0.30;;
14410;SDS011;7290;50.854;4.354;2022-08-18T23:39:20;0.10;;;0.10;;
14410;SDS011;7290;50.854;4.354;2022-08-18T23:44:24;0.00;;;0.00;;
14410;SDS011;7290;50.854;4.354;2022-08-18T23:49:28;0.00;;;0.00;;
14410;SDS011;7290;50.854;4.354;2022-08-18T23:54:33;0.15;;;0.15;;
14410;SDS011;7290;50.854;4.354;2022-08-18T23:59:36;0.10;;;0.10;;
